createdAt,value
2023-01-21T00:01:04.263Z,8.10
2023-01-21T00:03:31.622Z,8.33
2023-01-21T00:05:59.052Z,6.83
2023-01-21T00:08:27.070Z,5.97
2023-01-21T00:10:55.168Z,8.10
2023-01-21T00:13:22.724Z,8.83
2023-01-21T00:15:50.107Z,7.60
2023-01-21T00:18:17.400Z,10.13
2023-01-21T00:20:46.180Z,11.03
2023-01-21T00:23:13.584Z,10.27
2023-01-21T00:25:40.905Z,20.63
2023-01-21T00:28:08.154Z,15.53
2023-01-21T00:30:36.880Z,11.13
2023-01-21T00:33:04.726Z,9.83
2023-01-21T00:35:31.922Z,8.73
2023-01-21T00:37:59.134Z,8.13
2023-01-21T00:40:26.490Z,7.70
2023-01-21T00:42:53.782Z,5.43
2023-01-21T00:45:21.023Z,4.93
2023-01-21T00:47:48.507Z,5.33
2023-01-21T00:50:16.329Z,19.03
2023-01-21T00:52:43.684Z,5.70
2023-01-21T00:55:10.884Z,7.20
2023-01-21T00:57:38.528Z,19.77
2023-01-21T01:00:10.942Z,10.40
2023-01-21T01:02:38.544Z,5.73
2023-01-21T01:05:08.221Z,15.30
2023-01-21T01:07:35.568Z,9.83
2023-01-21T01:10:02.830Z,7.93
2023-01-21T01:12:30.087Z,7.95
2023-01-21T01:14:59.498Z,8.40
2023-01-21T01:17:28.011Z,10.10
2023-01-21T01:19:55.808Z,9.37
2023-01-21T01:22:23.164Z,8.77
2023-01-21T01:24:50.375Z,8.23
2023-01-21T01:27:17.812Z,10.43
2023-01-21T01:29:45.227Z,10.85
2023-01-21T01:32:12.458Z,12.17
2023-01-21T01:34:39.737Z,10.63
2023-01-21T01:37:06.994Z,11.47
2023-01-21T01:39:34.544Z,9.80
2023-01-21T01:42:03.406Z,8.57
2023-01-21T01:44:52.675Z,9.47
2023-01-21T01:47:21.324Z,17.40
2023-01-21T01:49:48.847Z,13.47
2023-01-21T01:52:17.811Z,6.40
2023-01-21T01:54:53.037Z,6.50
2023-01-21T01:57:23.642Z,6.27
2023-01-21T01:59:51.492Z,5.70
2023-01-21T02:02:20.223Z,5.50
2023-01-21T02:04:51.252Z,3.93
2023-01-21T02:07:20.478Z,3.80
2023-01-21T02:09:47.990Z,2.20
2023-01-21T02:12:17.999Z,2.45
2023-01-21T02:14:46.908Z,2.22
2023-01-21T02:17:32.148Z,2.10
2023-01-21T02:20:20.713Z,2.13
2023-01-21T02:23:18.534Z,2.05
2023-01-21T02:26:11.082Z,2.15
2023-01-21T02:29:08.981Z,1.60
2023-01-21T02:32:27.949Z,1.48
2023-01-21T02:35:24.200Z,1.10
2023-01-21T02:38:09.037Z,1.07
2023-01-21T02:40:54.356Z,1.00
2023-01-21T02:43:40.684Z,0.77
2023-01-21T02:46:42.913Z,0.70
2023-01-21T02:49:33.035Z,0.60
2023-01-21T02:52:00.242Z,0.53
2023-01-21T02:54:39.488Z,0.70
2023-01-21T02:57:14.745Z,0.60
2023-01-21T02:59:48.131Z,0.60
2023-01-21T03:02:34.046Z,0.60
2023-01-21T03:05:19.998Z,0.67
2023-01-21T03:07:52.833Z,0.70
2023-01-21T03:10:38.678Z,0.53
2023-01-21T03:13:13.296Z,0.63
2023-01-21T03:16:14.842Z,0.50
2023-01-21T03:18:48.880Z,0.60
2023-01-21T03:21:21.183Z,0.50
2023-01-21T03:23:51.429Z,0.50
2023-01-21T03:26:26.360Z,0.50
2023-01-21T03:28:57.639Z,0.60
2023-01-21T03:31:28.784Z,0.50
2023-01-21T03:34:00.287Z,0.60
2023-01-21T03:36:59.610Z,0.70
2023-01-21T03:39:45.642Z,0.47
2023-01-21T03:42:13.948Z,0.53
2023-01-21T03:44:42.275Z,0.45
2023-01-21T03:47:18.487Z,0.47
2023-01-21T03:49:52.588Z,0.50
2023-01-21T03:52:22.724Z,0.40
2023-01-21T03:54:50.340Z,0.43
2023-01-21T03:57:17.611Z,0.47
2023-01-21T03:59:44.833Z,0.47
2023-01-21T04:02:12.130Z,0.60
2023-01-21T04:04:39.403Z,0.50
2023-01-21T04:07:06.651Z,0.40
2023-01-21T04:09:33.828Z,0.40
2023-01-21T04:12:01.104Z,0.43
2023-01-21T04:14:28.426Z,0.40
2023-01-21T04:16:55.828Z,0.63
2023-01-21T04:19:23.233Z,0.45
2023-01-21T04:21:50.449Z,0.57
2023-01-21T04:24:17.729Z,0.63
2023-01-21T04:26:44.985Z,0.50
2023-01-21T04:29:12.256Z,0.60
2023-01-21T04:31:39.607Z,0.50
2023-01-21T04:34:06.977Z,0.40
2023-01-21T04:36:34.248Z,0.40
2023-01-21T04:39:01.558Z,0.52
2023-01-21T04:41:28.824Z,0.40
2023-01-21T04:43:56.271Z,0.40
2023-01-21T04:46:23.573Z,0.30
2023-01-21T04:48:51.002Z,0.43
2023-01-21T04:51:18.305Z,0.43
2023-01-21T04:53:45.557Z,0.40
2023-01-21T04:56:12.802Z,0.50
2023-01-21T04:58:40.063Z,0.40
2023-01-21T05:01:07.416Z,0.40
2023-01-21T05:03:34.883Z,0.40
2023-01-21T05:06:02.189Z,0.40
2023-01-21T05:08:29.636Z,0.70
2023-01-21T05:10:56.913Z,1.92
2023-01-21T05:13:24.199Z,1.30
2023-01-21T05:15:51.457Z,1.55
2023-01-21T05:18:18.798Z,0.77
2023-01-21T05:20:46.004Z,1.60
2023-01-21T05:23:13.240Z,2.08
2023-01-21T05:25:40.463Z,1.17
2023-01-21T05:28:08.463Z,0.95
2023-01-21T05:30:35.800Z,0.97
2023-01-21T05:33:03.327Z,0.60
2023-01-21T05:35:30.560Z,0.40
2023-01-21T05:38:00.207Z,0.60
2023-01-21T05:40:27.836Z,0.35
2023-01-21T05:42:55.038Z,0.60
2023-01-21T05:45:22.270Z,0.60
2023-01-21T05:47:49.839Z,0.40
2023-01-21T05:50:18.736Z,0.60
2023-01-21T05:52:46.158Z,0.65
2023-01-21T05:55:13.423Z,0.80
2023-01-21T05:57:40.622Z,0.75
2023-01-21T06:00:08.628Z,0.50
2023-01-21T06:02:35.924Z,0.57
2023-01-21T06:05:03.381Z,0.50
2023-01-21T06:07:30.590Z,0.60
2023-01-21T06:09:57.807Z,0.40
2023-01-21T06:12:25.180Z,0.70
2023-01-21T06:14:52.429Z,0.50
2023-01-21T06:17:19.743Z,0.68
2023-01-21T06:19:46.990Z,0.40
2023-01-21T06:22:17.976Z,0.70
2023-01-21T06:24:45.416Z,0.60
2023-01-21T06:27:13.071Z,0.40
2023-01-21T06:29:40.322Z,0.40
2023-01-21T06:32:08.190Z,0.50
2023-01-21T06:34:35.469Z,0.50
2023-01-21T06:37:02.702Z,0.52
2023-01-21T06:39:29.940Z,0.60
2023-01-21T06:41:57.211Z,0.50
2023-01-21T06:44:24.583Z,0.40
2023-01-21T06:47:00.706Z,0.57
2023-01-21T06:54:23.532Z,0.77
2023-01-21T06:56:50.850Z,0.52
2023-01-21T06:59:18.093Z,0.95
2023-01-21T07:01:45.632Z,0.80
2023-01-21T07:04:13.184Z,1.20
2023-01-21T07:06:40.592Z,1.58
2023-01-21T07:09:08.538Z,1.23
2023-01-21T07:11:36.101Z,1.02
2023-01-21T07:14:03.481Z,1.00
2023-01-21T07:16:30.796Z,1.20
2023-01-21T07:18:58.069Z,1.15
2023-01-21T07:21:25.777Z,0.93
2023-01-21T07:23:53.790Z,1.08
2023-01-21T07:26:21.515Z,1.38
2023-01-21T07:28:48.840Z,1.17
2023-01-21T07:31:16.190Z,1.60
2023-01-21T07:33:43.497Z,1.73
2023-01-21T07:36:10.773Z,1.50
2023-01-21T07:38:38.275Z,1.73
2023-01-21T07:41:05.475Z,1.80
2023-01-21T07:43:32.830Z,1.48
2023-01-21T07:46:00.630Z,1.23
2023-01-21T07:48:28.031Z,1.50
2023-01-21T07:50:59.492Z,1.45
2023-01-21T07:53:27.403Z,1.33
2023-01-21T07:55:54.709Z,1.55
2023-01-21T07:58:21.981Z,1.48
2023-01-21T08:00:49.364Z,1.60
2023-01-21T08:03:20.015Z,1.70
2023-01-21T08:05:47.327Z,1.80
2023-01-21T08:08:14.774Z,0.98
2023-01-21T08:10:41.997Z,1.00
2023-01-21T08:13:09.205Z,1.15
2023-01-21T08:15:36.605Z,0.65
2023-01-21T08:18:03.901Z,1.02
2023-01-21T08:20:31.145Z,1.60
2023-01-21T08:23:00.473Z,1.40
2023-01-21T08:25:27.807Z,1.00
2023-01-21T08:27:55.035Z,1.33
2023-01-21T08:30:22.426Z,1.58
2023-01-21T08:32:50.871Z,1.17
2023-01-21T08:35:18.363Z,2.83
2023-01-21T08:37:45.770Z,1.10
2023-01-21T08:40:13.464Z,0.57
2023-01-21T08:42:40.736Z,2.90
2023-01-21T08:45:08.589Z,1.02
2023-01-21T08:47:35.848Z,1.35
2023-01-21T08:50:03.490Z,1.00
2023-01-21T08:52:30.723Z,0.85
2023-01-21T08:54:58.052Z,0.90
2023-01-21T08:57:26.628Z,0.68
2023-01-21T08:59:53.929Z,0.70
2023-01-21T09:02:21.237Z,0.75
2023-01-21T09:04:50.531Z,0.60
2023-01-21T09:07:17.858Z,0.77
2023-01-21T09:09:45.158Z,1.27
2023-01-21T09:12:12.412Z,0.90
2023-01-21T09:14:39.676Z,1.17
2023-01-21T09:17:06.929Z,1.23
2023-01-21T09:19:34.121Z,1.30
2023-01-21T09:22:01.466Z,1.73
2023-01-21T09:24:28.801Z,1.40
2023-01-21T09:26:56.178Z,1.20
2023-01-21T09:29:23.424Z,1.75
2023-01-21T09:31:50.734Z,1.30
2023-01-21T09:34:18.088Z,1.50
2023-01-21T09:36:45.293Z,3.88
2023-01-21T09:39:12.583Z,1.70
2023-01-21T09:41:52.115Z,1.42
2023-01-21T09:44:39.913Z,0.95
2023-01-21T09:47:50.530Z,1.25
2023-01-21T09:50:20.949Z,1.63
2023-01-21T09:52:54.181Z,2.10
2023-01-21T09:55:32.259Z,2.15
2023-01-21T09:58:32.034Z,1.40
2023-01-21T10:01:03.307Z,0.90
2023-01-21T10:03:44.437Z,1.30
2023-01-21T10:06:25.783Z,1.00
2023-01-21T10:09:26.365Z,0.60
2023-01-21T10:12:12.874Z,1.88
2023-01-21T10:14:43.162Z,1.20
2023-01-21T10:17:41.977Z,1.10
2023-01-21T10:20:37.479Z,1.20
2023-01-21T10:23:28.131Z,0.68
2023-01-21T10:25:58.368Z,0.60
2023-01-21T10:28:30.401Z,0.88
2023-01-21T10:31:21.427Z,0.90
2023-01-21T10:33:48.872Z,0.90
2023-01-21T10:36:38.922Z,0.68
2023-01-21T10:39:30.265Z,1.38
2023-01-21T10:42:25.663Z,0.70
2023-01-21T10:45:15.484Z,0.50
2023-01-21T10:47:56.075Z,0.47
2023-01-21T10:51:00.875Z,0.63
2023-01-21T10:54:27.490Z,0.70
2023-01-21T10:56:59.747Z,0.60
2023-01-21T10:59:33.346Z,0.73
2023-01-21T11:02:29.146Z,0.90
2023-01-21T11:05:02.036Z,0.70
2023-01-21T11:07:34.732Z,0.43
2023-01-21T11:10:05.287Z,0.70
2023-01-21T11:12:32.998Z,0.47
2023-01-21T11:15:20.386Z,0.68
2023-01-21T11:17:53.023Z,0.90
2023-01-21T11:20:41.223Z,0.45
2023-01-21T11:23:29.238Z,0.40
2023-01-21T11:26:08.728Z,0.70
2023-01-21T11:28:37.353Z,1.10
2023-01-21T11:31:31.324Z,0.75
2023-01-21T11:34:06.479Z,1.77
2023-01-21T11:36:34.502Z,0.90
2023-01-21T11:39:09.067Z,0.80
2023-01-21T11:41:36.640Z,0.70
2023-01-21T11:44:18.156Z,0.70
2023-01-21T11:46:45.662Z,0.77
2023-01-21T11:49:42.168Z,1.20
2023-01-21T11:52:18.596Z,1.40
2023-01-21T11:54:47.419Z,0.60
2023-01-21T11:57:32.895Z,1.00
2023-01-21T12:00:19.230Z,1.02
2023-01-21T12:02:54.502Z,0.60
2023-01-21T12:05:43.141Z,0.80
2023-01-21T12:08:21.733Z,0.70
2023-01-21T12:10:50.781Z,0.80
2023-01-21T12:13:37.726Z,0.50
2023-01-21T12:16:08.072Z,0.85
2023-01-21T12:19:03.553Z,0.65
2023-01-21T12:21:51.951Z,1.05
2023-01-21T12:24:45.958Z,0.63
2023-01-21T12:27:49.900Z,0.70
2023-01-21T12:30:26.990Z,0.45
2023-01-21T12:33:12.643Z,1.20
2023-01-21T12:35:46.104Z,0.75
2023-01-21T12:38:21.037Z,1.17
2023-01-21T12:41:02.627Z,1.85
2023-01-21T12:43:36.983Z,1.70
2023-01-21T12:46:15.142Z,1.98
2023-01-21T12:48:55.978Z,2.50
2023-01-21T12:51:42.431Z,2.95
2023-01-21T12:54:29.208Z,3.00
2023-01-21T13:00:13.927Z,3.97
2023-01-21T13:02:59.158Z,5.10
2023-01-21T13:05:44.280Z,5.75
2023-01-21T13:08:36.126Z,5.78
2023-01-21T13:11:15.038Z,6.03
2023-01-21T13:13:58.863Z,5.88
2023-01-21T13:16:26.857Z,5.47
2023-01-21T13:18:55.527Z,5.88
2023-01-21T13:21:37.645Z,5.85
2023-01-21T13:24:16.599Z,5.97
2023-01-21T13:27:21.341Z,6.72
2023-01-21T13:30:28.282Z,5.68
2023-01-21T13:33:23.547Z,5.28
2023-01-21T13:36:27.423Z,4.70
2023-01-21T13:39:12.833Z,5.38
2023-01-21T13:42:37.092Z,4.15
2023-01-21T13:45:12.239Z,5.32
2023-01-21T13:48:16.402Z,5.68
2023-01-21T13:50:52.921Z,4.90
2023-01-21T13:53:26.933Z,5.00
2023-01-21T13:56:23.310Z,5.35
2023-01-21T13:58:55.761Z,5.43
2023-01-21T14:01:38.936Z,6.13
2023-01-21T14:04:27.644Z,5.97
2023-01-21T14:07:00.196Z,5.43
2023-01-21T14:09:47.441Z,5.43
2023-01-21T14:12:27.507Z,8.80
2023-01-21T14:15:19.474Z,7.03
2023-01-21T14:18:40.702Z,6.20
2023-01-21T14:21:20.825Z,6.85
2023-01-21T14:24:02.433Z,5.85
2023-01-21T14:26:42.738Z,5.90
2023-01-21T14:29:28.549Z,5.97
2023-01-21T14:32:05.315Z,6.72
2023-01-21T14:35:04.696Z,6.60
2023-01-21T14:37:43.879Z,5.25
2023-01-21T14:40:11.454Z,4.82
2023-01-21T14:42:41.971Z,6.30
2023-01-21T14:45:10.553Z,5.97
2023-01-21T14:47:48.226Z,5.55
2023-01-21T14:50:46.021Z,8.38
2023-01-21T14:53:19.584Z,9.25
2023-01-21T14:56:04.672Z,7.07
2023-01-21T14:58:32.281Z,6.65
2023-01-21T15:00:59.765Z,6.60
2023-01-21T15:03:30.298Z,6.07
2023-01-21T15:06:02.361Z,14.90
2023-01-21T15:08:45.443Z,16.98
2023-01-21T15:11:43.894Z,37.38
2023-01-21T15:14:15.499Z,16.10
2023-01-21T15:16:44.822Z,10.57
2023-01-21T15:19:18.925Z,10.27
2023-01-21T15:22:20.889Z,11.18
2023-01-21T15:25:14.314Z,10.18
2023-01-21T15:27:41.674Z,8.27
2023-01-21T15:30:28.704Z,7.78
2023-01-21T15:32:56.229Z,7.00
2023-01-21T15:35:40.614Z,7.15
2023-01-21T15:38:15.553Z,9.43
2023-01-21T15:40:46.693Z,7.50
2023-01-21T15:43:23.526Z,6.38
2023-01-21T15:45:56.651Z,6.03
2023-01-21T15:48:45.600Z,7.47
2023-01-21T15:51:39.150Z,7.22
2023-01-21T15:54:18.961Z,6.20
2023-01-21T15:57:01.309Z,6.60
2023-01-21T15:59:57.183Z,4.53
2023-01-21T16:02:27.757Z,5.65
2023-01-21T16:05:19.838Z,6.78
2023-01-21T16:07:59.072Z,4.95
2023-01-21T16:11:03.430Z,5.85
2023-01-21T16:13:55.759Z,5.60
2023-01-21T16:16:32.629Z,6.13
2023-01-21T16:19:20.099Z,5.43
2023-01-21T16:21:53.613Z,5.30
2023-01-21T16:24:24.922Z,6.47
2023-01-21T16:26:52.258Z,5.80
2023-01-21T16:29:19.856Z,6.18
2023-01-21T16:31:48.736Z,8.05
2023-01-21T16:34:38.567Z,10.60
2023-01-21T16:37:07.306Z,16.13
2023-01-21T16:39:34.583Z,14.88
2023-01-21T16:42:06.429Z,8.13
2023-01-21T16:44:35.877Z,9.15
2023-01-21T16:47:03.782Z,9.23
2023-01-21T16:49:31.211Z,5.00
2023-01-21T16:52:01.598Z,5.38
2023-01-21T16:54:30.991Z,5.10
2023-01-21T16:57:16.564Z,4.85
2023-01-21T16:59:48.234Z,11.27
2023-01-21T17:02:28.451Z,10.13
2023-01-21T17:04:58.190Z,9.55
2023-01-21T17:07:28.224Z,11.70
2023-01-21T17:10:02.802Z,10.23
2023-01-21T17:12:32.862Z,35.75
2023-01-21T17:15:10.190Z,16.92
2023-01-21T17:17:37.471Z,15.10
2023-01-21T17:20:05.292Z,13.55
2023-01-21T17:22:35.772Z,11.25
2023-01-21T17:25:24.722Z,9.13
2023-01-21T17:27:54.037Z,8.23
2023-01-21T17:30:33.800Z,8.13
2023-01-21T17:33:02.772Z,8.15
2023-01-21T17:35:32.978Z,21.88
2023-01-21T17:38:02.892Z,49.00
2023-01-21T17:40:40.432Z,13.40
2023-01-21T17:43:23.501Z,13.57
2023-01-21T17:45:52.494Z,15.68
2023-01-21T17:48:39.178Z,20.63
2023-01-21T17:51:18.317Z,15.07
2023-01-21T17:53:53.714Z,14.93
2023-01-21T17:56:52.576Z,13.52
2023-01-21T17:59:34.501Z,17.48
2023-01-21T18:02:10.136Z,22.85
2023-01-21T18:04:40.869Z,29.98
2023-01-21T18:07:23.089Z,35.20
2023-01-21T18:09:54.431Z,28.42
2023-01-21T18:12:22.066Z,20.63
2023-01-21T18:14:50.039Z,4.78
2023-01-21T18:17:20.069Z,4.28
2023-01-21T18:19:47.478Z,13.75
2023-01-21T18:22:23.974Z,26.30
2023-01-21T18:24:51.531Z,15.90
2023-01-21T18:27:20.650Z,13.93
2023-01-21T18:29:48.078Z,12.40
2023-01-21T18:32:16.305Z,11.90
2023-01-21T18:34:44.803Z,9.23
2023-01-21T18:37:18.081Z,10.13
2023-01-21T18:39:45.480Z,11.70
2023-01-21T18:42:15.318Z,12.25
2023-01-21T18:44:43.167Z,15.57
2023-01-21T18:47:14.646Z,9.68
2023-01-21T18:49:42.887Z,6.68
2023-01-21T18:52:13.871Z,5.60
2023-01-21T18:54:41.581Z,4.60
2023-01-21T18:57:15.337Z,4.70
2023-01-21T18:59:42.596Z,4.65
2023-01-21T19:02:15.804Z,4.75
2023-01-21T19:04:43.890Z,5.22
2023-01-21T19:07:15.764Z,5.28
2023-01-21T19:09:46.058Z,5.20
2023-01-21T19:12:13.969Z,6.15
2023-01-21T19:14:41.278Z,7.10
2023-01-21T19:17:26.743Z,9.23
2023-01-21T19:19:55.358Z,10.73
2023-01-21T19:22:23.099Z,11.82
2023-01-21T19:24:50.674Z,16.63
2023-01-21T19:27:26.547Z,18.48
2023-01-21T19:29:53.985Z,17.60
2023-01-21T19:32:21.308Z,17.27
2023-01-21T19:34:48.551Z,18.45
2023-01-21T19:37:23.525Z,18.33
2023-01-21T19:39:50.748Z,21.08
2023-01-21T19:42:18.156Z,18.75
2023-01-21T19:44:45.428Z,17.85
2023-01-21T19:47:18.871Z,17.90
2023-01-21T19:49:46.660Z,16.20
2023-01-21T19:52:15.052Z,16.58
2023-01-21T19:54:42.315Z,17.27
2023-01-21T19:57:17.634Z,16.90
2023-01-21T19:59:47.015Z,17.58
2023-01-21T20:02:14.505Z,15.73
2023-01-21T20:04:41.856Z,16.50
2023-01-21T20:07:13.885Z,17.48
2023-01-21T20:09:41.189Z,17.33
2023-01-21T20:12:12.348Z,17.85
2023-01-21T20:14:39.973Z,20.45
2023-01-21T20:17:12.743Z,24.30
2023-01-21T20:19:40.181Z,21.35
2023-01-21T20:22:07.784Z,20.55
2023-01-21T20:24:35.045Z,21.90
2023-01-21T20:27:06.463Z,31.33
2023-01-21T20:29:37.713Z,31.23
2023-01-21T20:32:07.164Z,17.52
2023-01-21T20:34:34.802Z,16.65
2023-01-21T20:37:02.056Z,19.48
2023-01-21T20:39:29.359Z,21.90
2023-01-21T20:41:56.588Z,18.92
2023-01-21T20:44:25.199Z,16.48
2023-01-21T20:47:00.898Z,17.25
2023-01-21T20:49:28.144Z,19.27
2023-01-21T20:51:55.450Z,22.45
2023-01-21T20:54:24.795Z,21.30
2023-01-21T20:56:52.119Z,19.58
2023-01-21T20:59:21.746Z,18.35
2023-01-21T21:01:51.212Z,19.05
2023-01-21T21:04:18.527Z,16.63
2023-01-21T21:06:45.850Z,16.25
2023-01-21T21:09:13.108Z,15.73
2023-01-21T21:11:40.396Z,16.30
2023-01-21T21:14:07.682Z,16.33
2023-01-21T21:16:35.312Z,17.98
2023-01-21T21:19:03.652Z,18.40
2023-01-21T21:23:28.332Z,18.20
2023-01-21T21:24:50.100Z,18.48
2023-01-21T21:27:17.395Z,19.77
2023-01-21T21:29:44.623Z,20.23
2023-01-21T21:32:13.463Z,19.38
2023-01-21T21:34:41.169Z,20.85
2023-01-21T21:37:12.216Z,19.95
2023-01-21T21:39:39.786Z,21.48
2023-01-21T21:42:28.143Z,18.77
2023-01-21T21:44:55.377Z,19.20
2023-01-21T21:47:41.141Z,19.38
2023-01-21T21:50:08.930Z,18.25
2023-01-21T21:52:36.150Z,16.83
2023-01-21T21:55:03.631Z,16.63
2023-01-21T21:57:49.321Z,18.10
2023-01-21T22:00:28.584Z,17.95
2023-01-21T22:03:05.438Z,17.40
2023-01-21T22:05:35.336Z,16.80
2023-01-21T22:08:03.709Z,17.75
2023-01-21T22:10:30.919Z,17.65
2023-01-21T22:12:58.163Z,18.25
2023-01-21T22:15:25.409Z,17.30
2023-01-21T22:17:52.797Z,16.58
2023-01-21T22:20:20.134Z,16.38
2023-01-21T22:22:47.390Z,17.10
2023-01-21T22:25:15.054Z,17.02
2023-01-21T22:27:42.374Z,16.88
2023-01-21T22:30:10.187Z,16.67
2023-01-21T22:32:37.449Z,15.82
2023-01-21T22:35:04.985Z,15.50
2023-01-21T22:37:32.225Z,16.05
2023-01-21T22:39:59.545Z,15.82
2023-01-21T22:42:26.885Z,15.93
2023-01-21T22:44:54.228Z,17.00
2023-01-21T22:47:21.493Z,16.42
2023-01-21T22:49:49.261Z,15.30
2023-01-21T22:52:16.704Z,14.57
2023-01-21T22:54:44.020Z,14.18
2023-01-21T22:57:11.302Z,13.80
2023-01-21T22:59:39.868Z,13.57
2023-01-21T23:02:07.101Z,13.73
2023-01-21T23:04:34.722Z,12.70
2023-01-21T23:07:02.033Z,13.75
2023-01-21T23:09:29.407Z,12.02
2023-01-21T23:11:56.893Z,13.35
2023-01-21T23:14:24.235Z,13.35
2023-01-21T23:16:53.973Z,12.18
2023-01-21T23:19:21.391Z,11.20
2023-01-21T23:21:48.731Z,12.60
2023-01-21T23:24:15.979Z,11.57
2023-01-21T23:26:43.254Z,12.60
2023-01-21T23:29:10.577Z,12.07
2023-01-21T23:31:37.986Z,13.55
2023-01-21T23:34:05.354Z,14.43
2023-01-21T23:36:32.677Z,14.57
2023-01-21T23:38:59.956Z,14.35
2023-01-21T23:41:27.754Z,14.93
2023-01-21T23:43:59.689Z,14.02
2023-01-21T23:46:27.386Z,14.38
2023-01-21T23:48:54.732Z,13.27
2023-01-21T23:51:22.281Z,13.57
2023-01-21T23:53:49.854Z,13.07
2023-01-21T23:56:21.195Z,11.60
2023-01-21T23:58:49.061Z,13.48
